This is the latest recevied weather packets stored in our database for station/object KB0BS-13. If no packets are shown the sender has not sent any weather packets the latest 10 day(s).
| Time | Temp. | Humidity | Pressure | Rain* | Wind** | Luminosity | Snow |
|---|---|---|---|---|---|---|---|
| 1777927940 | 11.11° C | 80% | 995.1 hPa | 0 mm | - | 56 W/m² | - |
| 1777927035 | 11.67° C | 74% | 994.9 hPa | 0 mm | - | 45 W/m² | - |
| 1777926732 | 12.78° C | 69% | 994.8 hPa | 0 mm | - | 32 W/m² | - |
| 1777926432 | 13.33° C | 66% | 994.7 hPa | 0 mm | - | 27 W/m² | - |
| 1777925524 | 13.89° C | 65% | 994.5 hPa | 0 mm | - | 58 W/m² | - |
| 1777925221 | 13.89° C | 62% | 994.2 hPa | 0 mm | - | 43 W/m² | - |
| 1777924309 | 15° C | 56% | 994.4 hPa | 0 mm | - | 101 W/m² | - |
| 1777923097 | 14.44° C | 56% | 994.6 hPa | 0 mm | - | 166 W/m² | - |
| 1777922795 | 14.44° C | 56% | 994.6 hPa | 0 mm | - | 169 W/m² | - |
| 1777922493 | 14.44° C | 58% | 994.5 hPa | 0 mm | - | 172 W/m² | - |
| 1777922191 | 14.44° C | 61% | 994.5 hPa | 0 mm | - | 196 W/m² | - |
| 1777921887 | 14.44° C | 60% | 994.4 hPa | 0 mm | - | 182 W/m² | - |
| 1777921280 | 14.44° C | 58% | 994.5 hPa | 0 mm | - | 191 W/m² | - |
| 1777919156 | 16.67° C | 50% | 993.3 hPa | 0 mm | - | 99 W/m² | - |
| 1777917343 | 19.44° C | 38% | 993.3 hPa | 0 mm | - | 115 W/m² | - |
| 1777916131 | 20° C | 38% | 992.8 hPa | 0 mm | - | 215 W/m² | - |
| 1777915221 | 20° C | 38% | 993 hPa | 0 mm | - | 326 W/m² | - |
| 1777914615 | 20° C | 41% | 993.1 hPa | 0 mm | - | 574 W/m² | - |
| 1777914311 | 19.44° C | 41% | 993 hPa | 0 mm | - | 864 W/m² | - |
| 1777912794 | 17.78° C | 49% | 994.2 hPa | 0 mm | - | 488 W/m² | - |
| 1777910972 | 17.22° C | 52% | 994.8 hPa | 0 mm | - | 631 W/m² | - |
| 1777910671 | 16.67° C | 55% | 994.9 hPa | 0 mm | - | 663 W/m² | - |
| 1777909156 | 15° C | 62% | 995.2 hPa | 0 mm | - | 539 W/m² | - |
| 1777908854 | 15° C | 64% | 995.4 hPa | 0 mm | - | 454 W/m² | - |
| 1777908549 | 14.44° C | 64% | 995.6 hPa | 0 mm | - | 430 W/m² | - |
* Rain latest hour (hover to see other rain measurements)
** Current wind speed in m/s (hover to see current wind gust speed)